Time;durP1;ratioP1;P1;durP2;ratioP2;P2;SDS_P1;SDS_P2;PMS_P1;PMS_P2;Temp;Humidity;BMP_temperature;BMP_pressure;BME280_temperature;BME280_humidity;BME280_pressure;Samples;Min_cycle;Max_cycle;Signal;HPM_P1;HPM_P2
2021/03/06 00:02:05;;;;;;;;;;;-1.70;95.50;;;;;;5093892;28;19912;-61
2021/03/06 00:04:31;;;;;;;;;;;-1.60;95.20;;;;;;5094095;28;19904;-62
2021/03/06 00:06:57;;;;;;;;;;;-1.50;95.60;;;;;;5094675;28;20205;-62
2021/03/06 00:09:23;;;;;;;;;;;-1.60;95.40;;;;;;5094635;28;20395;-62
2021/03/06 00:11:49;;;;;;;;;;;-1.60;95.30;;;;;;5094425;28;20008;-62
2021/03/06 00:14:15;;;;;;;;;;;-1.50;95.70;;;;;;5094922;28;19912;-62
2021/03/06 00:16:41;;;;;;;;;;;-1.40;96.20;;;;;;5094209;28;19908;-62
2021/03/06 00:19:07;;;;;;;;;;;-1.40;96.10;;;;;;5094757;28;20276;-62
2021/03/06 00:21:33;;;;;;;;;;;-1.30;96.60;;;;;;5094139;28;19912;-62
2021/03/06 00:23:59;;;;;;;;;;;-1.20;96.30;;;;;;5094588;28;19915;-61
2021/03/06 00:26:25;;;;;;;;;;;-1.40;95.60;;;;;;5087923;28;19909;-62
2021/03/06 00:28:51;;;;;;;;;;;-1.50;95.50;;;;;;5094680;28;19931;-62
2021/03/06 00:31:17;;;;;;;;;;;-1.60;95.80;;;;;;5094114;28;19923;-62
2021/03/06 00:33:43;;;;;;;;;;;-1.60;95.80;;;;;;5075903;28;19995;-62
2021/03/06 00:36:09;;;;;;;;;;;-1.60;96.10;;;;;;5093890;28;20296;-62
2021/03/06 00:38:35;;;;;;;;;;;-1.60;96.00;;;;;;5093792;28;19942;-62
2021/03/06 00:41:01;;;;;;;;;;;-1.50;96.50;;;;;;5094452;28;20432;-62
2021/03/06 00:43:27;;;;;;;;;;;-1.30;97.00;;;;;;5094259;28;19908;-62
2021/03/06 00:45:53;;;;;;;;;;;-1.30;96.70;;;;;;5092449;28;19916;-63
2021/03/06 00:48:19;;;;;;;;;;;-1.20;96.80;;;;;;5093974;28;19920;-62
2021/03/06 00:50:45;;;;;;;;;;;-1.30;96.30;;;;;;5093521;28;19913;-62
2021/03/06 00:53:11;;;;;;;;;;;-1.40;96.20;;;;;;5093735;28;20362;-62
2021/03/06 00:55:37;;;;;;;;;;;-1.40;96.20;;;;;;5076093;28;20269;-62
2021/03/06 00:58:02;;;;;;;;;;;-1.40;96.60;;;;;;5094477;28;19916;-62
2021/03/06 01:00:28;;;;;;;;;;;-1.30;96.60;;;;;;5093930;28;20373;-62
2021/03/06 01:02:54;;;;;;;;;;;-1.20;97.00;;;;;;5093387;28;19912;-62
2021/03/06 01:05:21;;;;;;;;;;;-1.10;97.00;;;;;;5093842;28;19912;-62
2021/03/06 01:07:47;;;;;;;;;;;-0.90;97.10;;;;;;5075452;28;19907;-62
2021/03/06 01:10:17;;;;;;;;;;;-1.00;96.80;;;;;;5093660;28;20306;-62
2021/03/06 01:12:43;;;;;;;;;;;-0.90;96.90;;;;;;5093399;28;19912;-62
2021/03/06 01:15:09;;;;;;;;;;;-0.80;97.10;;;;;;5092902;28;20281;-62
2021/03/06 01:17:35;;;;;;;;;;;-0.70;97.00;;;;;;5092826;28;19919;-63
2021/03/06 01:20:01;;;;;;;;;;;-0.50;97.20;;;;;;5093504;28;19955;-62
2021/03/06 01:22:27;;;;;;;;;;;-0.50;96.70;;;;;;5093520;28;19908;-62
2021/03/06 01:24:53;;;;;;;;;;;-0.50;96.60;;;;;;5093419;28;19915;-62
2021/03/06 01:27:19;;;;;;;;;;;-0.50;96.90;;;;;;5093483;28;20011;-62
2021/03/06 01:29:45;;;;;;;;;;;-0.40;96.70;;;;;;5092982;28;19920;-62
2021/03/06 01:32:11;;;;;;;;;;;-0.30;96.70;;;;;;5093357;28;19912;-61
2021/03/06 01:34:37;;;;;;;;;;;-0.20;96.70;;;;;;5093405;28;19904;-63
2021/03/06 01:37:03;;;;;;;;;;;-0.30;96.40;;;;;;5092845;28;20307;-62
2021/03/06 01:39:29;;;;;;;;;;;-0.30;96.20;;;;;;5093367;28;19912;-62
2021/03/06 01:41:55;;;;;;;;;;;-0.50;95.90;;;;;;5092872;28;19948;-61
2021/03/06 01:44:21;;;;;;;;;;;-0.70;95.90;;;;;;5093012;28;20353;-62
2021/03/06 01:46:47;;;;;;;;;;;-0.80;96.10;;;;;;5092613;28;19916;-62
2021/03/06 01:49:13;;;;;;;;;;;-0.90;96.20;;;;;;5092960;28;20352;-62
2021/03/06 01:51:39;;;;;;;;;;;-1.00;96.20;;;;;;5084207;28;19912;-62
2021/03/06 01:54:05;;;;;;;;;;;-0.90;96.70;;;;;;5078052;28;19908;-62
2021/03/06 01:56:31;;;;;;;;;;;-0.70;97.60;;;;;;5083793;28;19908;-61
2021/03/06 01:58:57;;;;;;;;;;;-0.50;97.90;;;;;;5092823;28;20311;-62
2021/03/06 02:01:23;;;;;;;;;;;-0.50;97.50;;;;;;5087388;28;19912;-62
2021/03/06 02:03:49;;;;;;;;;;;-0.70;97.00;;;;;;5075750;28;20276;-62
2021/03/06 02:06:15;;;;;;;;;;;-0.80;96.80;;;;;;5084957;28;19908;-62
2021/03/06 02:08:41;;;;;;;;;;;-1.00;96.70;;;;;;5092314;28;20379;-63
2021/03/06 02:11:07;;;;;;;;;;;-1.10;96.80;;;;;;5092234;28;19916;-62
2021/03/06 02:13:42;;;;;;;;;;;-1.20;97.10;;;;;;5088630;28;19920;-62
2021/03/06 02:16:14;;;;;;;;;;;-1.20;97.40;;;;;;5092583;28;19908;-63
2021/03/06 02:18:43;;;;;;;;;;;-1.10;97.80;;;;;;5092715;28;19908;-62
2021/03/06 02:21:12;;;;;;;;;;;-1.00;97.90;;;;;;5078929;28;19908;-62
2021/03/06 02:24:02;;;;;;;;;;;-1.00;97.90;;;;;;5092575;28;19908;-62
2021/03/06 02:26:50;;;;;;;;;;;-0.90;98.30;;;;;;5074629;28;19915;-62
2021/03/06 02:29:34;;;;;;;;;;;-1.00;97.90;;;;;;5092341;28;19919;-62
2021/03/06 02:32:03;;;;;;;;;;;-0.90;98.30;;;;;;5092101;28;19912;-62
2021/03/06 02:34:30;;;;;;;;;;;-0.90;98.30;;;;;;5092249;28;19915;-62
2021/03/06 02:36:57;;;;;;;;;;;-0.90;98.50;;;;;;5074320;28;20379;-62
2021/03/06 02:39:24;;;;;;;;;;;-0.90;98.20;;;;;;5088828;28;19932;-62
2021/03/06 02:41:50;;;;;;;;;;;-1.00;97.90;;;;;;5075097;28;19915;-62
2021/03/06 02:44:16;;;;;;;;;;;-1.00;97.90;;;;;;5074862;28;19908;-61
2021/03/06 02:46:42;;;;;;;;;;;-1.10;97.90;;;;;;5074425;28;19953;-62
2021/03/06 02:49:08;;;;;;;;;;;-1.00;98.30;;;;;;5090900;28;20007;-62
2021/03/06 02:51:37;;;;;;;;;;;-1.10;98.20;;;;;;5092441;28;20357;-62
2021/03/06 02:54:04;;;;;;;;;;;-1.00;98.90;;;;;;5092187;28;19935;-61
2021/03/06 02:56:30;;;;;;;;;;;-0.90;99.20;;;;;;5092014;28;20010;-62
2021/03/06 02:59:02;;;;;;;;;;;-0.90;99.10;;;;;;5075310;28;20376;-62
2021/03/06 03:01:46;;;;;;;;;;;-0.80;99.40;;;;;;5092112;28;19934;-62
2021/03/06 03:04:21;;;;;;;;;;;-0.70;99.40;;;;;;5092354;28;20371;-62
2021/03/06 03:06:48;;;;;;;;;;;-0.60;99.40;;;;;;5073112;28;19919;-62
2021/03/06 03:09:35;;;;;;;;;;;-0.60;99.40;;;;;;5080295;28;19916;-62
2021/03/06 03:12:02;;;;;;;;;;;-0.60;99.20;;;;;;5091773;28;19908;-62
2021/03/06 03:14:31;;;;;;;;;;;-0.80;99.00;;;;;;5090995;28;19915;-62
2021/03/06 03:17:01;;;;;;;;;;;-0.80;99.20;;;;;;5091690;28;19909;-62
2021/03/06 03:19:56;;;;;;;;;;;-0.80;99.60;;;;;;5082538;28;19916;-62
2021/03/06 03:22:22;;;;;;;;;;;-0.60;99.90;;;;;;5037705;28;19932;-61
2021/03/06 03:24:49;;;;;;;;;;;-0.60;99.90;;;;;;5081559;28;20380;-62
2021/03/06 03:27:14;;;;;;;;;;;-0.50;99.90;;;;;;5079135;28;19937;-62
2021/03/06 03:29:40;;;;;;;;;;;-0.60;99.60;;;;;;5085388;28;19923;-62
2021/03/06 03:32:08;;;;;;;;;;;-0.50;99.80;;;;;;5074184;28;19919;-62
2021/03/06 03:34:34;;;;;;;;;;;-0.60;99.70;;;;;;5079114;28;19911;-62
2021/03/06 03:37:00;;;;;;;;;;;-0.60;99.90;;;;;;5074740;28;20349;-62
2021/03/06 03:39:25;;;;;;;;;;;-0.60;99.90;;;;;;5091371;28;19915;-62
2021/03/06 03:41:51;;;;;;;;;;;-0.60;99.90;;;;;;5092291;28;19919;-62
2021/03/06 03:44:17;;;;;;;;;;;-0.70;99.60;;;;;;5080402;28;19908;-61
2021/03/06 03:46:43;;;;;;;;;;;-0.80;99.60;;;;;;5093746;28;19912;-62
2021/03/06 03:49:13;;;;;;;;;;;-0.70;99.90;;;;;;5092953;28;19916;-62
2021/03/06 03:51:39;;;;;;;;;;;-0.50;99.90;;;;;;5092417;28;19908;-62
2021/03/06 03:54:05;;;;;;;;;;;-0.40;99.90;;;;;;5093414;28;19939;-61
2021/03/06 03:56:31;;;;;;;;;;;-0.40;99.90;;;;;;5069310;28;19908;-61
2021/03/06 03:58:57;;;;;;;;;;;-0.30;99.90;;;;;;5077259;28;19959;-62
2021/03/06 04:01:23;;;;;;;;;;;-0.20;99.90;;;;;;5094844;28;19908;-62
2021/03/06 04:03:49;;;;;;;;;;;-0.30;99.90;;;;;;5095034;28;19954;-62
2021/03/06 04:06:15;;;;;;;;;;;-0.20;99.90;;;;;;5094378;28;19912;-61
2021/03/06 04:08:40;;;;;;;;;;;-0.20;99.90;;;;;;5095079;28;19920;-62
2021/03/06 04:11:06;;;;;;;;;;;0.00;99.90;;;;;;5094483;28;19919;-61
2021/03/06 04:13:32;;;;;;;;;;;0.10;99.90;;;;;;5094999;28;19912;-62
2021/03/06 04:15:58;;;;;;;;;;;0.10;99.90;;;;;;5094603;28;20003;-62
2021/03/06 04:18:24;;;;;;;;;;;-0.20;99.90;;;;;;5093670;28;20315;-62
2021/03/06 04:20:50;;;;;;;;;;;-0.20;99.90;;;;;;5094700;28;20525;-62
2021/03/06 04:23:16;;;;;;;;;;;0.00;99.90;;;;;;5094070;28;20006;-62
2021/03/06 04:25:42;;;;;;;;;;;0.10;99.90;;;;;;5094509;28;19912;-62
2021/03/06 04:28:08;;;;;;;;;;;0.00;99.90;;;;;;5094719;28;19958;-61
2021/03/06 04:30:34;;;;;;;;;;;0.00;99.90;;;;;;5094162;28;19965;-61
2021/03/06 04:33:01;;;;;;;;;;;-0.10;99.90;;;;;;5093198;28;21387;-62
2021/03/06 04:35:27;;;;;;;;;;;-0.30;99.90;;;;;;5094227;28;19919;-62
2021/03/06 04:37:53;;;;;;;;;;;-0.40;99.90;;;;;;5094287;28;19938;-62
2021/03/06 04:40:19;;;;;;;;;;;-0.40;99.90;;;;;;5093703;28;19916;-61
2021/03/06 04:42:45;;;;;;;;;;;-0.30;99.90;;;;;;5094480;28;19965;-61
2021/03/06 04:45:11;;;;;;;;;;;-0.10;99.90;;;;;;5093936;28;19965;-62
2021/03/06 04:47:41;;;;;;;;;;;0.10;99.90;;;;;;5094033;28;19916;-62
2021/03/06 04:50:07;;;;;;;;;;;0.30;99.90;;;;;;5093827;28;19931;-61
2021/03/06 04:52:33;;;;;;;;;;;0.40;99.90;;;;;;5076769;28;19916;-61
2021/03/06 04:54:59;;;;;;;;;;;0.50;99.90;;;;;;5093640;28;19916;-62
2021/03/06 04:57:26;;;;;;;;;;;0.60;99.90;;;;;;5077804;28;19930;-62
2021/03/06 04:59:52;;;;;;;;;;;0.70;99.90;;;;;;5092868;28;19923;-62
2021/03/06 05:02:18;;;;;;;;;;;0.70;99.90;;;;;;5093730;28;19959;-61
2021/03/06 05:04:44;;;;;;;;;;;0.40;99.90;;;;;;5093333;28;19927;-61
2021/03/06 05:07:10;;;;;;;;;;;0.40;99.90;;;;;;5093298;28;19921;-62
2021/03/06 05:09:36;;;;;;;;;;;0.10;99.90;;;;;;5093543;28;19924;-62
2021/03/06 05:12:02;;;;;;;;;;;-0.10;99.80;;;;;;5093413;28;19939;-62
2021/03/06 05:14:28;;;;;;;;;;;-0.30;99.70;;;;;;5102417;28;19916;-62
2021/03/06 05:16:54;;;;;;;;;;;-0.50;99.70;;;;;;5093279;28;19924;-62
2021/03/06 05:19:20;;;;;;;;;;;-0.40;99.90;;;;;;5093472;28;19963;-62
2021/03/06 05:21:45;;;;;;;;;;;-0.30;99.90;;;;;;5093722;28;20265;-62
2021/03/06 05:24:11;;;;;;;;;;;-0.30;99.90;;;;;;5091867;28;20364;-62
2021/03/06 05:26:37;;;;;;;;;;;-0.30;99.90;;;;;;5093442;28;19919;-62
2021/03/06 05:29:03;;;;;;;;;;;-0.20;99.90;;;;;;5093057;28;20335;-62
2021/03/06 05:31:29;;;;;;;;;;;0.00;99.90;;;;;;5093366;28;20399;-62
2021/03/06 05:33:55;;;;;;;;;;;0.00;99.90;;;;;;5075879;28;20002;-62
2021/03/06 05:36:21;;;;;;;;;;;0.10;99.90;;;;;;5092396;28;19912;-61
2021/03/06 05:38:47;;;;;;;;;;;0.30;99.90;;;;;;5093437;28;19955;-62
2021/03/06 05:41:13;;;;;;;;;;;0.40;99.90;;;;;;5091502;28;19912;-62
2021/03/06 05:43:39;;;;;;;;;;;0.50;99.90;;;;;;5092889;28;19923;-62
2021/03/06 05:46:05;;;;;;;;;;;0.40;99.90;;;;;;5093023;28;19923;-62
2021/03/06 05:48:31;;;;;;;;;;;0.50;99.90;;;;;;5084083;28;19913;-62
2021/03/06 05:50:57;;;;;;;;;;;0.50;99.90;;;;;;5092947;28;19959;-62
2021/03/06 05:53:23;;;;;;;;;;;0.20;99.90;;;;;;5092981;28;19920;-62
2021/03/06 05:55:54;;;;;;;;;;;0.10;99.90;;;;;;5077851;28;19967;-62
2021/03/06 05:58:20;;;;;;;;;;;0.00;99.90;;;;;;5091927;28;20384;-61
2021/03/06 06:00:46;;;;;;;;;;;-0.10;99.90;;;;;;5092633;28;20300;-62
2021/03/06 06:03:12;;;;;;;;;;;-0.10;99.90;;;;;;5092289;28;19912;-61
2021/03/06 06:05:38;;;;;;;;;;;-0.20;99.90;;;;;;5092348;28;20349;-62
2021/03/06 06:08:04;;;;;;;;;;;-0.10;99.90;;;;;;5091280;28;19916;-61
2021/03/06 06:10:31;;;;;;;;;;;-0.10;99.90;;;;;;5092279;28;20281;-61
2021/03/06 06:12:57;;;;;;;;;;;-0.10;99.90;;;;;;5092606;28;20273;-62
2021/03/06 06:15:23;;;;;;;;;;;0.00;99.90;;;;;;5092480;28;19912;-62
2021/03/06 06:17:49;;;;;;;;;;;0.00;99.90;;;;;;5092369;28;19923;-62
2021/03/06 06:20:16;;;;;;;;;;;0.00;99.90;;;;;;5074077;28;20284;-61
2021/03/06 06:22:42;;;;;;;;;;;0.00;99.90;;;;;;5092727;28;19916;-62
2021/03/06 06:25:09;;;;;;;;;;;0.00;99.90;;;;;;5092724;28;19913;-61
2021/03/06 06:27:35;;;;;;;;;;;0.00;99.90;;;;;;5091071;28;19916;-61
2021/03/06 06:30:01;;;;;;;;;;;0.00;99.90;;;;;;5091956;28;20288;-61
2021/03/06 06:32:28;;;;;;;;;;;-0.10;99.90;;;;;;5092401;28;19923;-62
2021/03/06 06:34:58;;;;;;;;;;;-0.10;99.90;;;;;;5090959;28;19923;-62
2021/03/06 06:37:24;;;;;;;;;;;-0.10;99.90;;;;;;5091522;28;19916;-61
2021/03/06 06:39:50;;;;;;;;;;;0.10;99.90;;;;;;5092340;28;19938;-62
2021/03/06 06:42:16;;;;;;;;;;;0.10;99.90;;;;;;5074434;28;19965;-61
2021/03/06 06:44:53;;;;;;;;;;;0.20;99.90;;;;;;5092597;28;19916;-62
2021/03/06 06:47:19;;;;;;;;;;;0.30;99.90;;;;;;5092228;28;19931;-61
2021/03/06 06:49:45;;;;;;;;;;;0.40;99.90;;;;;;5091786;28;19924;-62
2021/03/06 06:52:11;;;;;;;;;;;0.40;99.90;;;;;;5092216;28;19912;-62
2021/03/06 06:54:37;;;;;;;;;;;0.50;99.90;;;;;;5092103;28;19916;-62
2021/03/06 06:57:06;;;;;;;;;;;0.60;99.90;;;;;;5092028;28;19974;-62
2021/03/06 06:59:32;;;;;;;;;;;0.70;99.90;;;;;;5092184;28;19912;-62
2021/03/06 07:01:58;;;;;;;;;;;0.80;99.90;;;;;;5092054;28;19912;-62
2021/03/06 07:04:24;;;;;;;;;;;0.90;99.90;;;;;;5078420;28;19916;-62
2021/03/06 07:06:56;;;;;;;;;;;1.10;99.90;;;;;;5072739;28;19913;-62
2021/03/06 07:09:22;;;;;;;;;;;1.10;99.90;;;;;;5091256;28;20274;-62
2021/03/06 07:11:48;;;;;;;;;;;1.20;99.90;;;;;;5091535;28;19973;-62
2021/03/06 07:14:33;;;;;;;;;;;1.30;99.90;;;;;;5094150;28;19924;-62
2021/03/06 07:16:59;;;;;;;;;;;1.50;99.90;;;;;;5074502;28;19919;-62
2021/03/06 07:19:30;;;;;;;;;;;1.70;99.90;;;;;;5097776;28;19924;-62
2021/03/06 07:21:56;;;;;;;;;;;1.80;99.90;;;;;;5104862;28;19919;-62
2021/03/06 07:24:22;;;;;;;;;;;1.90;99.90;;;;;;5086072;28;19934;-62
2021/03/06 07:26:52;;;;;;;;;;;2.00;99.90;;;;;;5100817;28;20392;-63
2021/03/06 07:29:18;;;;;;;;;;;2.20;99.90;;;;;;5098037;28;19924;-63
2021/03/06 07:31:44;;;;;;;;;;;2.40;99.90;;;;;;5104120;28;19924;-62
2021/03/06 07:34:10;;;;;;;;;;;2.60;99.90;;;;;;5085060;28;19911;-62
2021/03/06 07:36:37;;;;;;;;;;;3.20;99.90;;;;;;5089723;28;20393;-63
2021/03/06 07:39:03;;;;;;;;;;;4.20;99.90;;;;;;5098265;28;19935;-64
2021/03/06 07:41:29;;;;;;;;;;;5.40;98.50;;;;;;5094972;28;19923;-64
2021/03/06 07:43:55;;;;;;;;;;;5.70;91.40;;;;;;5076306;28;20565;-62
2021/03/06 07:46:21;;;;;;;;;;;6.10;91.40;;;;;;5076735;28;19912;-63
2021/03/06 07:48:48;;;;;;;;;;;6.30;90.80;;;;;;5095243;28;19967;-63
2021/03/06 07:51:14;;;;;;;;;;;5.80;89.20;;;;;;5095469;28;19919;-63
2021/03/06 07:53:42;;;;;;;;;;;6.10;90.10;;;;;;5077509;28;20367;-63
2021/03/06 07:56:08;;;;;;;;;;;6.20;87.10;;;;;;5095612;28;19909;-62
2021/03/06 07:58:50;;;;;;;;;;;7.20;85.60;;;;;;5077184;28;19923;-63
2021/03/06 08:01:43;;;;;;;;;;;7.80;80.50;;;;;;5095793;28;19912;-63
2021/03/06 08:04:16;;;;;;;;;;;7.80;79.80;;;;;;5093069;28;20262;-63
2021/03/06 08:06:42;;;;;;;;;;;9.20;73.40;;;;;;5076847;28;19962;-63
2021/03/06 08:09:08;;;;;;;;;;;9.10;70.20;;;;;;5077460;28;19916;-63
2021/03/06 08:11:34;;;;;;;;;;;9.00;69.50;;;;;;5094988;28;19939;-64
2021/03/06 08:14:02;;;;;;;;;;;10.30;67.00;;;;;;5095492;28;20365;-63
2021/03/06 08:16:28;;;;;;;;;;;10.70;62.90;;;;;;5095136;28;19912;-64
2021/03/06 08:19:00;;;;;;;;;;;10.10;62.40;;;;;;5095351;28;19908;-63
2021/03/06 08:21:33;;;;;;;;;;;8.90;64.10;;;;;;5095057;28;19908;-64
2021/03/06 08:24:14;;;;;;;;;;;9.40;64.10;;;;;;5094903;28;20365;-63
2021/03/06 08:26:51;;;;;;;;;;;9.50;64.30;;;;;;5076329;28;19909;-63
2021/03/06 08:29:24;;;;;;;;;;;9.80;61.70;;;;;;5094655;28;19920;-64
2021/03/06 08:32:03;;;;;;;;;;;9.50;62.30;;;;;;5095176;28;19916;-63
2021/03/06 08:34:50;;;;;;;;;;;8.60;62.80;;;;;;5094717;28;19921;-63
2021/03/06 08:37:22;;;;;;;;;;;8.50;66.30;;;;;;5094315;28;19908;-64
2021/03/06 08:40:00;;;;;;;;;;;8.90;64.10;;;;;;5083950;28;19919;-63
2021/03/06 08:42:26;;;;;;;;;;;9.30;60.80;;;;;;5094631;28;19915;-63
2021/03/06 08:44:53;;;;;;;;;;;9.10;59.80;;;;;;5094944;28;19994;-64
2021/03/06 08:47:22;;;;;;;;;;;8.90;61.70;;;;;;5094744;28;20253;-63
2021/03/06 08:49:49;;;;;;;;;;;9.50;57.90;;;;;;5094425;28;19920;-63
2021/03/06 08:52:15;;;;;;;;;;;9.00;61.10;;;;;;5076788;28;20284;-63
2021/03/06 08:54:41;;;;;;;;;;;9.80;55.90;;;;;;5094147;28;19933;-63
2021/03/06 08:57:26;;;;;;;;;;;8.90;59.00;;;;;;5094334;28;19938;-64
2021/03/06 08:59:52;;;;;;;;;;;8.30;61.80;;;;;;5094270;28;19923;-64
2021/03/06 09:02:25;;;;;;;;;;;9.10;58.80;;;;;;5094094;28;20296;-64
2021/03/06 09:05:00;;;;;;;;;;;8.40;60.00;;;;;;5093715;28;19916;-65
2021/03/06 09:07:27;;;;;;;;;;;9.20;57.80;;;;;;5094112;28;19915;-63
2021/03/06 09:09:53;;;;;;;;;;;9.40;58.70;;;;;;5075823;28;19916;-64
2021/03/06 09:12:19;;;;;;;;;;;9.00;58.10;;;;;;5094370;28;20280;-63
2021/03/06 09:14:45;;;;;;;;;;;9.50;57.70;;;;;;5094167;28;19942;-64
2021/03/06 09:17:11;;;;;;;;;;;9.60;56.10;;;;;;5094395;28;19916;-64
2021/03/06 09:19:37;;;;;;;;;;;9.30;57.00;;;;;;5066217;28;19912;-64
2021/03/06 09:22:04;;;;;;;;;;;9.60;58.00;;;;;;5075883;28;19985;-64
2021/03/06 09:24:49;;;;;;;;;;;10.10;56.10;;;;;;5075483;28;19919;-64
2021/03/06 09:27:15;;;;;;;11.73;1.83;;;10.00;56.40;;;;;;5092137;28;20400;-71
2021/03/06 09:29:42;;;;;;;10.52;1.25;;;8.30;59.20;;;;;;5092018;28;20451;-70
2021/03/06 09:32:08;;;;;;;8.07;1.27;;;7.70;63.00;;;;;;5074555;28;20188;-70
2021/03/06 09:34:35;;;;;;;7.70;1.25;;;8.00;61.70;;;;;;5092942;28;20562;-71
2021/03/06 09:37:17;;;;;;;8.05;1.23;;;8.90;59.30;;;;;;5091318;28;20182;-70
2021/03/06 09:39:43;;;;;;;7.85;1.23;;;8.00;61.70;;;;;;5092394;28;20181;-71
2021/03/06 09:42:09;;;;;;;9.82;1.42;;;7.10;62.60;;;;;;5092523;28;20172;-72
2021/03/06 09:44:36;;;;;;;6.95;1.00;;;7.70;62.00;;;;;;5055421;28;20541;-70
2021/03/06 09:47:02;;;;;;;9.45;1.13;;;8.10;60.20;;;;;;5091781;28;20201;-70
2021/03/06 09:49:35;;;;;;;5.90;1.13;;;7.60;62.40;;;;;;5074308;28;20291;-71
2021/03/06 09:52:01;;;;;;;6.50;1.20;;;7.80;62.40;;;;;;5074848;28;20173;-71
2021/03/06 09:54:27;;;;;;;6.15;1.40;;;8.30;62.40;;;;;;5092702;28;20192;-70
2021/03/06 09:56:58;;;;;;;7.00;1.08;;;7.70;60.30;;;;;;5077382;28;20189;-69
2021/03/06 09:59:25;;;;;;;8.05;1.48;;;7.40;62.60;;;;;;5097431;28;20540;-69
2021/03/06 10:01:52;;;;;;;11.88;1.58;;;7.40;62.20;;;;;;5100971;28;20180;-71
2021/03/06 10:04:27;;;;;;;11.07;1.40;;;7.70;62.60;;;;;;5082484;28;20181;-70
2021/03/06 10:06:54;;;;;;;11.27;1.40;;;8.20;60.10;;;;;;5100148;28;20168;-72
2021/03/06 10:09:21;;;;;;;10.73;1.48;;;8.10;58.70;;;;;;5059986;28;20657;-69
2021/03/06 10:11:55;;;;;;;10.23;1.50;;;8.50;58.30;;;;;;5091663;28;20634;-70
2021/03/06 10:14:22;;;;;;;12.77;1.90;;;7.80;60.00;;;;;;5091659;28;20188;-68
2021/03/06 10:16:50;;;;;;;10.60;1.27;;;8.30;59.20;;;;;;5073234;28;20173;-73
2021/03/06 10:19:17;;;;;;;14.63;1.20;;;8.20;58.30;;;;;;5056679;28;20258;-72
2021/03/06 10:22:01;;;;;;;8.88;1.10;;;8.20;59.90;;;;;;5091521;28;20188;-70
2021/03/06 10:24:28;;;;;;;8.00;1.40;;;7.90;59.60;;;;;;5075135;28;20172;-70
2021/03/06 10:26:58;;;;;;;11.45;1.25;;;9.10;57.90;;;;;;5073591;28;20622;-71
2021/03/06 10:29:24;;;;;;;7.70;1.10;;;8.10;60.50;;;;;;5092102;28;20173;-70
2021/03/06 10:32:01;;;;;;;10.27;1.35;;;8.00;60.10;;;;;;5073946;28;20540;-70
2021/03/06 10:34:31;;;;;;;17.08;2.80;;;8.00;60.00;;;;;;5091905;28;20172;-70
2021/03/06 10:37:17;;;;;;;9.07;1.73;;;8.80;59.60;;;;;;5072871;28;20177;-70
2021/03/06 10:39:59;;;;;;;13.40;1.55;;;9.40;58.50;;;;;;5091047;28;20173;-71
2021/03/06 10:42:47;;;;;;;12.43;1.13;;;8.60;58.00;;;;;;5074302;28;20165;-70
2021/03/06 10:45:29;;;;;;;11.52;1.33;;;8.80;57.70;;;;;;5091198;28;20657;-70
2021/03/06 10:47:59;;;;;;;15.82;0.88;;;10.10;56.90;;;;;;5075239;28;20200;-71
2021/03/06 10:50:26;;;;;;;7.25;0.93;;;9.20;56.60;;;;;;5059176;28;20196;-71
2021/03/06 10:52:56;;;;;;;6.10;0.85;;;8.30;58.40;;;;;;5095636;28;20180;-71
2021/03/06 10:55:35;;;;;;;9.07;1.00;;;7.70;59.90;;;;;;5077086;28;20204;-69
2021/03/06 10:58:01;;;;;;;11.88;1.50;;;8.40;57.80;;;;;;5095451;28;20361;-69
2021/03/06 11:00:27;;;;;;;13.85;1.30;;;8.80;58.50;;;;;;5096154;28;20169;-71
2021/03/06 11:02:58;;;;;;;15.80;2.05;;;9.30;55.70;;;;;;5097434;28;20630;-71
2021/03/06 11:05:25;;;;;;;11.77;1.60;;;9.70;56.20;;;;;;5051513;28;20173;-69
2021/03/06 11:07:51;;;;;;;9.82;0.98;;;10.90;53.00;;;;;;5095456;28;20181;-70
2021/03/06 11:10:18;;;;;;;5.45;0.90;;;12.00;50.60;;;;;;5094986;28;20666;-69
2021/03/06 11:12:54;;;;;;;9.30;1.27;;;10.80;49.80;;;;;;5095434;28;20528;-72
2021/03/06 11:15:22;;;;;;;11.52;1.15;;;10.50;50.60;;;;;;5095577;28;20188;-72
2021/03/06 11:17:55;;;;;;;9.45;1.38;;;9.90;52.60;;;;;;5069852;28;20184;-71
2021/03/06 11:20:26;;;;;;;19.83;1.70;;;11.00;50.30;;;;;;5063700;28;20193;-71
2021/03/06 11:22:52;;;;;;;18.35;1.67;;;9.30;53.40;;;;;;5090725;28;20157;-70
2021/03/06 11:25:19;;;;;;;17.02;0.90;;;10.50;52.20;;;;;;5082436;28;20200;-71
2021/03/06 11:27:49;;;;;;;7.00;0.88;;;10.70;48.90;;;;;;5077185;28;20181;-70
2021/03/06 11:30:17;;;;;;;10.65;1.17;;;9.60;54.80;;;;;;5095117;28;20221;-71
2021/03/06 11:32:45;;;;;;;17.77;1.38;;;10.30;52.30;;;;;;5095102;28;20169;-70
2021/03/06 11:35:12;;;;;;;17.63;1.67;;;11.80;48.10;;;;;;5095071;28;20181;-73
2021/03/06 11:37:38;;;;;;;5.82;1.02;;;11.80;49.60;;;;;;5076086;28;20641;-70
2021/03/06 11:40:06;;;;;;;15.43;1.40;;;12.50;45.90;;;;;;5094150;28;20564;-71
2021/03/06 11:42:32;;;;;;;11.55;1.55;;;11.20;49.30;;;;;;5097267;28;20185;-71
2021/03/06 11:44:58;;;;;;;16.13;1.50;;;10.40;50.60;;;;;;5100249;28;20177;-71
2021/03/06 11:47:24;;;;;;;9.48;1.33;;;9.10;55.70;;;;;;5078336;28;20216;-72
2021/03/06 11:49:50;;;;;;;19.80;1.60;;;9.60;54.70;;;;;;5099061;28;20228;-71
2021/03/06 11:52:16;;;;;;;3.85;0.80;;;9.00;55.70;;;;;;5103399;28;20177;-70
2021/03/06 11:54:43;;;;;;;6.60;1.42;;;8.60;55.50;;;;;;5101945;28;20187;-70
2021/03/06 11:57:09;;;;;;;12.43;1.50;;;8.80;57.70;;;;;;5100415;28;20173;-71
2021/03/06 11:59:35;;;;;;;15.32;1.42;;;8.60;56.70;;;;;;5081872;28;20181;-70
2021/03/06 12:02:01;;;;;;;10.38;1.75;;;9.40;57.20;;;;;;5088087;28;20634;-72
2021/03/06 12:04:27;;;;;;;13.85;1.52;;;9.20;54.40;;;;;;5094626;28;20235;-71
2021/03/06 12:06:53;;;;;;;17.50;1.83;;;9.30;56.50;;;;;;5094241;28;20173;-70
2021/03/06 12:09:19;;;;;;;8.25;1.15;;;9.10;57.50;;;;;;5093657;28;20184;-71
2021/03/06 12:11:46;;;;;;;11.77;1.60;;;9.50;58.00;;;;;;5075581;28;20213;-71
2021/03/06 12:14:13;;;;;;;10.30;1.80;;;9.10;57.10;;;;;;5093886;28;20173;-72
2021/03/06 12:16:39;;;;;;;17.10;1.73;;;8.10;61.60;;;;;;5094101;28;20181;-72
2021/03/06 12:19:05;;;;;;;17.77;1.70;;;8.10;61.90;;;;;;5093068;28;20177;-71
2021/03/06 12:21:31;;;;;;;16.17;1.55;;;7.40;64.80;;;;;;5093852;28;20177;-71
2021/03/06 12:23:58;;;;;;;17.88;1.33;;;7.70;64.10;;;;;;5075336;28;20185;-71
2021/03/06 12:26:24;;;;;;;13.07;1.95;;;7.30;65.00;;;;;;5094232;28;20188;-70
2021/03/06 12:28:50;;;;;;;18.08;1.88;;;7.30;65.60;;;;;;5093602;28;20173;-71
2021/03/06 12:31:16;;;;;;;14.85;1.75;;;7.10;67.30;;;;;;5075267;28;20224;-70
2021/03/06 12:33:42;;;;;;;15.32;2.03;;;6.60;67.50;;;;;;5094049;28;20192;-72
2021/03/06 12:36:09;;;;;;;17.92;1.67;;;6.60;69.50;;;;;;5092402;28;20660;-71
2021/03/06 12:38:35;;;;;;;20.45;1.92;;;6.70;68.90;;;;;;5093558;28;20181;-70
2021/03/06 12:41:01;;;;;;;19.80;1.80;;;6.80;69.60;;;;;;5074335;28;20195;-71
2021/03/06 12:43:28;;;;;;;6.97;1.00;;;6.30;71.60;;;;;;5093768;28;20531;-71
2021/03/06 12:45:54;;;;;;;9.05;1.30;;;6.10;71.50;;;;;;5092697;28;20204;-69
2021/03/06 12:48:20;;;;;;;22.98;2.08;;;6.00;72.40;;;;;;5088220;28;20189;-70
2021/03/06 12:50:46;;;;;;;7.13;1.15;;;6.00;72.40;;;;;;5092764;28;20209;-72
2021/03/06 12:53:12;;;;;;;15.80;1.25;;;6.00;72.60;;;;;;5073937;28;20181;-70
2021/03/06 12:55:39;;;;;;;11.98;1.40;;;5.70;73.30;;;;;;5093369;28;20177;-70
2021/03/06 12:58:05;;;;;;;8.25;1.13;;;5.80;74.00;;;;;;5093537;28;20192;-69
2021/03/06 13:00:31;;;;;;;19.63;1.67;;;6.00;72.80;;;;;;5073794;28;20201;-70
2021/03/06 13:02:58;;;;;;;11.20;1.50;;;5.90;73.30;;;;;;5093499;28;20634;-70
2021/03/06 13:05:24;;;;;;;6.63;1.17;;;6.00;72.80;;;;;;5074729;28;20653;-70
2021/03/06 13:07:50;;;;;;;11.00;2.08;;;6.10;72.90;;;;;;5072528;28;20792;-71
2021/03/06 13:10:16;;;;;;;4.63;0.98;;;5.60;73.60;;;;;;5091285;28;20209;-69
2021/03/06 13:12:42;;;;;;;22.77;1.63;;;5.60;74.30;;;;;;5091548;28;20184;-70
2021/03/06 13:15:09;;;;;;;7.75;1.42;;;5.80;74.00;;;;;;5092911;28;20192;-69
2021/03/06 13:17:35;;;;;;;19.15;1.83;;;5.70;73.70;;;;;;5093396;28;20543;-70
2021/03/06 13:20:02;;;;;;;23.30;2.63;;;5.80;73.80;;;;;;5092902;28;20173;-70
2021/03/06 13:22:28;;;;;;;12.25;1.20;;;5.90;74.20;;;;;;5093131;28;20181;-71
2021/03/06 13:24:54;;;;;;;12.13;0.90;;;5.90;73.30;;;;;;5092631;28;20181;-70
2021/03/06 13:27:20;;;;;;;7.55;1.50;;;5.80;73.50;;;;;;5095291;28;20177;-70
2021/03/06 13:29:46;;;;;;;9.50;1.52;;;5.90;73.40;;;;;;5074138;28;20212;-70
2021/03/06 13:32:12;;;;;;;13.85;2.55;;;5.80;72.40;;;;;;5091098;28;20205;-70
2021/03/06 13:34:39;;;;;;;19.90;1.70;;;5.80;73.00;;;;;;5093423;28;20530;-69
2021/03/06 13:37:05;;;;;;;18.80;1.85;;;6.00;72.60;;;;;;5092715;28;20173;-70
2021/03/06 13:39:31;;;;;;;11.40;1.35;;;6.20;71.60;;;;;;5105728;28;20177;-71
2021/03/06 13:41:57;;;;;;;11.07;1.50;;;6.20;71.60;;;;;;5093386;28;20195;-71
2021/03/06 13:44:23;;;;;;;14.50;1.50;;;5.80;71.90;;;;;;5100110;28;20183;-72
2021/03/06 13:46:50;;;;;;;14.40;2.05;;;6.10;72.80;;;;;;5073407;28;20181;-69
2021/03/06 13:49:16;;;;;;;13.88;1.55;;;5.90;72.50;;;;;;5073423;28;20208;-70
2021/03/06 13:51:42;;;;;;;14.32;1.65;;;5.90;73.00;;;;;;5090414;28;20197;-71
2021/03/06 13:54:08;;;;;;;16.73;2.00;;;6.00;74.30;;;;;;5092513;28;20177;-71